Time,TemperatureF,DewpointF,PressureIn,WindDirection,WindDirectionDegrees,WindSpeedMPH,WindSpeedGustMPH,Humidity,HourlyPrecipIn,Conditions,Clouds,dailyrainin,SoftwareType,DateUTC
2013-01-14 00:00:00,23.2,-25.4,29.56,North,0,0.0,0.0,1,0.00,,,1.12,WUHU216HW,2013-01-14 05:00:00,
2013-01-14 00:01:00,23.2,-25.4,29.56,North,0,0.0,0.0,1,0.00,,,1.12,WUHU216HW,2013-01-14 05:01:00,
2013-01-14 00:02:00,23.2,-25.4,29.56,North,0,0.0,0.0,1,0.00,,,0.00,WUHU216HW,2013-01-14 05:02:00,
2013-01-14 00:07:00,23.2,-25.4,29.56,North,0,0.0,0.0,1,0.00,,,0.00,WUHU216HW,2013-01-14 05:07:00,
2013-01-14 00:12:00,23.2,-25.4,29.56,North,0,0.0,0.0,1,0.00,,,0.00,WUHU216HW,2013-01-14 05:12:00,
2013-01-14 00:17:00,23.2,-25.4,29.56,North,0,0.0,0.0,1,0.00,,,0.00,WUHU216HW,2013-01-14 05:17:00,
2013-01-14 00:22:00,23.2,-25.4,29.55,North,0,0.0,0.0,1,0.00,,,0.00,WUHU216HW,2013-01-14 05:22:00,
2013-01-14 00:27:00,23.2,-25.4,29.55,North,0,0.0,0.0,1,0.00,,,0.00,WUHU216HW,2013-01-14 05:27:00,
2013-01-14 00:33:00,23.2,-25.4,29.55,North,0,0.0,0.0,1,0.00,,,0.00,WUHU216HW,2013-01-14 05:33:00,
2013-01-14 00:38:00,23.4,-25.3,29.55,North,0,0.0,0.0,1,0.00,,,0.00,WUHU216HW,2013-01-14 05:38:00,
2013-01-14 00:43:00,23.4,-25.3,29.56,North,0,0.0,0.0,1,0.00,,,0.00,WUHU216HW,2013-01-14 05:43:00,
2013-01-14 00:48:00,23.4,-25.3,29.56,North,0,0.0,0.0,1,0.00,,,0.00,WUHU216HW,2013-01-14 05:48:00,
2013-01-14 00:53:00,23.6,-25.1,29.57,North,0,0.0,0.0,1,0.00,,,0.00,WUHU216HW,2013-01-14 05:53:00,
2013-01-14 00:58:00,23.4,-25.3,29.57,North,0,0.0,0.0,1,0.00,,,0.00,WUHU216HW,2013-01-14 05:58:00,
2013-01-14 01:03:00,23.2,-25.4,29.57,North,0,0.0,0.0,1,0.00,,,0.00,WUHU216HW,2013-01-14 06:03:00,
2013-01-14 01:08:00,23.0,-25.6,29.58,North,0,0.0,0.0,1,0.00,,,0.00,WUHU216HW,2013-01-14 06:08:00,
2013-01-14 01:13:00,22.7,-25.8,29.58,North,0,0.0,0.0,1,0.00,,,0.00,WUHU216HW,2013-01-14 06:13:00,
2013-01-14 01:18:00,22.5,-26.0,29.58,North,0,0.0,0.0,1,0.00,,,0.00,WUHU216HW,2013-01-14 06:18:00,
2013-01-14 01:23:00,22.5,-26.0,29.58,North,0,0.0,0.0,1,0.00,,,0.00,WUHU216HW,2013-01-14 06:23:00,
2013-01-14 01:28:00,22.5,-26.0,29.59,North,0,0.0,0.0,1,0.00,,,0.00,WUHU216HW,2013-01-14 06:28:00,
2013-01-14 01:33:00,22.3,-26.1,29.59,North,0,0.0,0.0,1,0.00,,,0.00,WUHU216HW,2013-01-14 06:33:00,
2013-01-14 01:38:00,22.3,-26.1,29.59,North,0,0.0,0.0,1,0.00,,,0.00,WUHU216HW,2013-01-14 06:38:00,
2013-01-14 01:43:00,22.1,-26.3,29.59,North,0,0.0,0.0,1,0.00,,,0.00,WUHU216HW,2013-01-14 06:43:00,
2013-01-14 01:48:00,22.0,-26.5,29.60,North,0,0.0,0.0,1,0.00,,,0.00,WUHU216HW,2013-01-14 06:48:00,
2013-01-14 01:53:00,22.0,-26.5,29.60,North,0,0.0,0.0,1,0.00,,,0.00,WUHU216HW,2013-01-14 06:53:00,
2013-01-14 01:59:00,22.0,-26.5,29.60,North,0,0.0,0.0,1,0.00,,,0.00,WUHU216HW,2013-01-14 06:59:00,
2013-01-14 02:04:00,21.8,-26.5,29.61,North,0,0.0,0.0,1,0.00,,,0.00,WUHU216HW,2013-01-14 07:04:00,
2013-01-14 02:09:00,21.4,-26.8,29.61,North,0,0.0,0.0,1,0.00,,,0.00,WUHU216HW,2013-01-14 07:09:00,
2013-01-14 02:14:00,21.4,-26.8,29.60,North,0,0.0,0.0,1,0.00,,,0.00,WUHU216HW,2013-01-14 07:14:00,
2013-01-14 02:19:00,21.6,-26.7,29.61,North,0,0.0,0.0,1,0.00,,,0.00,WUHU216HW,2013-01-14 07:19:00,
2013-01-14 02:24:00,21.6,-26.7,29.62,North,0,0.0,0.0,1,0.00,,,0.00,WUHU216HW,2013-01-14 07:24:00,
2013-01-14 02:29:00,21.6,-26.7,29.62,North,0,0.0,0.0,1,0.00,,,0.00,WUHU216HW,2013-01-14 07:29:00,
2013-01-14 02:34:00,21.6,-26.7,29.62,North,0,0.0,0.0,1,0.00,,,0.00,WUHU216HW,2013-01-14 07:34:00,
2013-01-14 02:39:00,21.6,-26.7,29.62,North,0,0.0,0.0,1,0.00,,,0.00,WUHU216HW,2013-01-14 07:39:00,
2013-01-14 02:44:00,21.8,-26.5,29.63,North,0,0.0,0.0,1,0.00,,,0.00,WUHU216HW,2013-01-14 07:44:00,
2013-01-14 02:49:00,21.6,-26.7,29.63,North,0,0.0,0.0,1,0.00,,,0.00,WUHU216HW,2013-01-14 07:49:00,
2013-01-14 02:54:00,21.6,-26.7,29.63,North,0,0.0,0.0,1,0.00,,,0.00,WUHU216HW,2013-01-14 07:54:00,
2013-01-14 02:59:00,21.6,-26.7,29.63,North,0,0.0,0.0,1,0.00,,,0.00,WUHU216HW,2013-01-14 07:59:00,
2013-01-14 03:05:00,21.6,-26.7,29.63,North,0,0.0,0.0,1,0.00,,,0.00,WUHU216HW,2013-01-14 08:05:00,
2013-01-14 03:10:00,21.6,-26.7,29.64,North,0,0.0,0.0,1,0.00,,,0.00,WUHU216HW,2013-01-14 08:10:00,
2013-01-14 03:15:00,21.8,-26.5,29.64,North,0,0.0,0.0,1,0.00,,,0.00,WUHU216HW,2013-01-14 08:15:00,
2013-01-14 03:20:00,21.2,-27.0,29.64,North,0,0.0,0.0,1,0.00,,,0.00,WUHU216HW,2013-01-14 08:20:00,
2013-01-14 03:25:00,20.9,-27.3,29.64,North,0,0.0,0.0,1,0.00,,,0.00,WUHU216HW,2013-01-14 08:25:00,
2013-01-14 03:30:00,20.7,-27.3,29.65,North,0,0.0,0.0,1,0.00,,,0.00,WUHU216HW,2013-01-14 08:30:00,
2013-01-14 03:35:00,20.7,-27.3,29.65,North,0,0.0,0.0,1,0.00,,,0.00,WUHU216HW,2013-01-14 08:35:00,
2013-01-14 03:40:00,20.5,-27.5,29.65,North,0,0.0,0.0,1,0.00,,,0.00,WUHU216HW,2013-01-14 08:40:00,
2013-01-14 03:45:00,20.5,-27.5,29.65,North,0,0.0,0.0,1,0.00,,,0.00,WUHU216HW,2013-01-14 08:45:00,
2013-01-14 03:50:00,20.5,-27.5,29.65,North,0,0.0,0.0,1,0.00,,,0.00,WUHU216HW,2013-01-14 08:50:00,
2013-01-14 03:55:00,20.7,-27.3,29.65,North,0,0.0,0.0,1,0.00,,,0.00,WUHU216HW,2013-01-14 08:55:00,
2013-01-14 04:00:00,20.5,-27.5,29.66,North,0,0.0,0.0,1,0.00,,,0.00,WUHU216HW,2013-01-14 09:00:00,
2013-01-14 04:05:00,20.5,-27.5,29.66,North,0,0.0,0.0,1,0.00,,,0.00,WUHU216HW,2013-01-14 09:05:00,
2013-01-14 04:11:00,20.5,-27.5,29.66,North,0,0.0,0.0,1,0.00,,,0.00,WUHU216HW,2013-01-14 09:11:00,
2013-01-14 04:16:00,20.5,-27.5,29.66,North,0,0.0,0.0,1,0.00,,,0.00,WUHU216HW,2013-01-14 09:16:00,
2013-01-14 04:21:00,20.5,-27.5,29.66,North,0,0.0,0.0,1,0.00,,,0.00,WUHU216HW,2013-01-14 09:21:00,
2013-01-14 04:26:00,20.3,-27.6,29.66,North,0,0.0,0.0,1,0.00,,,0.00,WUHU216HW,2013-01-14 09:26:00,
2013-01-14 04:31:00,20.3,-27.6,29.66,North,0,0.0,0.0,1,0.00,,,0.00,WUHU216HW,2013-01-14 09:31:00,
2013-01-14 04:36:00,20.3,-27.6,29.66,North,0,0.0,0.0,1,0.00,,,0.00,WUHU216HW,2013-01-14 09:36:00,
2013-01-14 04:41:00,20.3,-27.6,29.66,North,0,0.0,0.0,1,0.00,,,0.00,WUHU216HW,2013-01-14 09:41:00,
2013-01-14 04:46:00,20.3,-27.6,29.66,North,0,0.0,0.0,1,0.00,,,0.00,WUHU216HW,2013-01-14 09:46:00,
2013-01-14 04:51:00,20.2,-27.7,29.66,North,0,0.0,0.0,1,0.00,,,0.00,WUHU216HW,2013-01-14 09:51:00,
2013-01-14 04:56:00,20.2,-27.7,29.66,North,0,0.0,0.0,1,0.00,,,0.00,WUHU216HW,2013-01-14 09:56:00,
2013-01-14 05:01:00,19.8,-28.0,29.66,North,0,0.0,0.0,1,0.00,,,0.00,WUHU216HW,2013-01-14 10:01:00,
2013-01-14 05:06:00,19.8,-28.0,29.66,North,0,0.0,0.0,1,0.00,,,0.00,WUHU216HW,2013-01-14 10:06:00,
2013-01-14 05:11:00,19.8,-28.0,29.66,North,0,0.0,0.0,1,0.00,,,0.00,WUHU216HW,2013-01-14 10:11:00,
2013-01-14 05:16:00,19.4,-28.3,29.66,North,0,0.0,0.0,1,0.00,,,0.00,WUHU216HW,2013-01-14 10:16:00,
2013-01-14 05:21:00,19.4,-28.3,29.66,North,0,0.0,0.0,1,0.00,,,0.00,WUHU216HW,2013-01-14 10:21:00,
2013-01-14 05:27:00,19.3,-28.4,29.66,North,0,0.0,0.0,1,0.00,,,0.00,WUHU216HW,2013-01-14 10:27:00,
2013-01-14 05:32:00,19.3,-28.4,29.66,North,0,0.0,0.0,1,0.00,,,0.00,WUHU216HW,2013-01-14 10:32:00,
2013-01-14 05:37:00,19.3,-28.4,29.67,North,0,0.0,0.0,1,0.00,,,0.00,WUHU216HW,2013-01-14 10:37:00,
2013-01-14 05:42:00,19.4,-28.3,29.67,North,0,0.0,0.0,1,0.00,,,0.00,WUHU216HW,2013-01-14 10:42:00,
2013-01-14 05:47:00,19.6,-28.2,29.67,North,0,0.0,0.0,1,0.00,,,0.00,WUHU216HW,2013-01-14 10:47:00,
2013-01-14 05:52:00,19.8,-28.0,29.67,North,0,0.0,0.0,1,0.00,,,0.00,WUHU216HW,2013-01-14 10:52:00,
2013-01-14 05:57:00,19.4,-28.3,29.67,North,0,0.0,0.0,1,0.00,,,0.00,WUHU216HW,2013-01-14 10:57:00,
2013-01-14 06:02:00,19.1,-28.5,29.68,North,0,0.0,0.0,1,0.00,,,0.00,WUHU216HW,2013-01-14 11:02:00,
2013-01-14 06:07:00,18.9,-28.7,29.68,North,0,0.0,0.0,1,0.00,,,0.00,WUHU216HW,2013-01-14 11:07:00,
2013-01-14 06:12:00,18.9,-28.7,29.68,North,0,0.0,0.0,1,0.00,,,0.00,WUHU216HW,2013-01-14 11:12:00,
2013-01-14 06:17:00,19.1,-28.5,29.68,North,0,0.0,0.0,1,0.00,,,0.00,WUHU216HW,2013-01-14 11:17:00,
2013-01-14 06:22:00,19.1,-28.5,29.68,North,0,0.0,0.0,1,0.00,,,0.00,WUHU216HW,2013-01-14 11:22:00,
2013-01-14 06:28:00,18.9,-28.7,29.68,North,0,0.0,0.0,1,0.00,,,0.00,WUHU216HW,2013-01-14 11:28:00,
2013-01-14 06:33:00,18.5,-29.0,29.69,North,0,0.0,0.0,1,0.00,,,0.00,WUHU216HW,2013-01-14 11:33:00,
2013-01-14 06:38:00,18.5,-29.0,29.69,North,0,0.0,0.0,1,0.00,,,0.00,WUHU216HW,2013-01-14 11:38:00,
2013-01-14 06:43:00,18.4,-29.2,29.69,North,0,0.0,0.0,1,0.00,,,0.00,WUHU216HW,2013-01-14 11:43:00,
2013-01-14 06:48:00,18.5,-29.0,29.70,North,0,0.0,0.0,1,0.00,,,0.00,WUHU216HW,2013-01-14 11:48:00,
2013-01-14 06:53:00,18.5,-29.0,29.70,North,0,0.0,0.0,1,0.00,,,0.00,WUHU216HW,2013-01-14 11:53:00,
2013-01-14 06:58:00,18.4,-29.2,29.70,North,0,0.0,0.0,1,0.00,,,0.00,WUHU216HW,2013-01-14 11:58:00,
2013-01-14 07:03:00,18.4,-29.2,29.71,North,0,0.0,0.0,1,0.00,,,0.00,WUHU216HW,2013-01-14 12:03:00,
2013-01-14 07:08:00,18.2,-29.2,29.71,North,0,0.0,0.0,1,0.00,,,0.00,WUHU216HW,2013-01-14 12:08:00,
2013-01-14 07:13:00,18.0,-29.4,29.71,North,0,0.0,0.0,1,0.00,,,0.00,WUHU216HW,2013-01-14 12:13:00,
2013-01-14 07:18:00,18.0,-29.4,29.71,North,0,0.0,0.0,1,0.00,,,0.00,WUHU216HW,2013-01-14 12:18:00,
2013-01-14 07:23:00,18.0,-29.4,29.71,North,0,0.0,0.0,1,0.00,,,0.00,WUHU216HW,2013-01-14 12:23:00,
2013-01-14 07:28:00,18.2,-29.2,29.71,North,0,0.0,0.0,1,0.00,,,0.00,WUHU216HW,2013-01-14 12:28:00,
2013-01-14 07:34:00,18.2,-29.2,29.72,North,0,0.0,0.0,1,0.00,,,0.00,WUHU216HW,2013-01-14 12:34:00,
2013-01-14 07:39:00,18.2,-29.2,29.71,North,0,0.0,0.0,1,0.00,,,0.00,WUHU216HW,2013-01-14 12:39:00,
2013-01-14 07:44:00,18.0,-29.4,29.72,North,0,0.0,0.0,1,0.00,,,0.00,WUHU216HW,2013-01-14 12:44:00,
2013-01-14 07:49:00,18.0,-29.4,29.72,North,0,0.0,0.0,1,0.00,,,0.00,WUHU216HW,2013-01-14 12:49:00,
2013-01-14 07:54:00,18.0,-29.4,29.73,North,0,0.0,0.0,1,0.00,,,0.00,WUHU216HW,2013-01-14 12:54:00,
2013-01-14 07:59:00,18.0,-29.4,29.73,North,0,0.0,0.0,1,0.00,,,0.00,WUHU216HW,2013-01-14 12:59:00,
2013-01-14 08:04:00,17.8,-29.5,29.73,North,0,0.0,0.0,1,0.00,,,0.00,WUHU216HW,2013-01-14 13:04:00,
2013-01-14 08:09:00,18.0,-29.4,29.74,North,0,0.0,0.0,1,0.00,,,0.00,WUHU216HW,2013-01-14 13:09:00,
2013-01-14 08:14:00,18.2,-29.2,29.74,North,0,0.0,0.0,1,0.00,,,0.00,WUHU216HW,2013-01-14 13:14:00,
2013-01-14 08:19:00,18.2,-29.2,29.74,North,0,0.0,0.0,1,0.00,,,0.00,WUHU216HW,2013-01-14 13:19:00,
2013-01-14 08:24:00,18.4,-29.2,29.74,North,0,0.0,0.0,1,0.00,,,0.00,WUHU216HW,2013-01-14 13:24:00,
2013-01-14 08:29:00,18.5,-29.0,29.75,North,0,0.0,0.0,1,0.00,,,0.00,WUHU216HW,2013-01-14 13:29:00,
2013-01-14 08:34:00,18.5,-29.0,29.75,North,0,0.0,0.0,1,0.00,,,0.00,WUHU216HW,2013-01-14 13:34:00,
2013-01-14 08:39:00,18.5,-29.0,29.75,North,0,0.0,0.0,1,0.00,,,0.00,WUHU216HW,2013-01-14 13:39:00,
2013-01-14 08:44:00,18.4,-29.2,29.75,North,0,0.0,0.0,1,0.00,,,0.00,WUHU216HW,2013-01-14 13:44:00,
2013-01-14 08:50:00,18.5,-29.0,29.75,North,0,0.0,0.0,1,0.00,,,0.00,WUHU216HW,2013-01-14 13:50:00,
2013-01-14 08:55:00,18.5,-29.0,29.75,North,0,0.0,0.0,1,0.00,,,0.00,WUHU216HW,2013-01-14 13:55:00,
2013-01-14 09:00:00,18.7,-28.8,29.76,North,0,0.0,0.0,1,0.00,,,0.00,WUHU216HW,2013-01-14 14:00:00,
2013-01-14 09:05:00,19.1,-28.5,29.76,North,0,0.0,0.0,1,0.00,,,0.00,WUHU216HW,2013-01-14 14:05:00,
2013-01-14 09:10:00,19.1,-28.5,29.76,North,0,0.0,0.0,1,0.00,,,0.00,WUHU216HW,2013-01-14 14:10:00,
2013-01-14 09:15:00,19.3,-28.4,29.76,North,0,0.0,0.0,1,0.00,,,0.00,WUHU216HW,2013-01-14 14:15:00,
2013-01-14 09:20:00,19.4,-28.3,29.76,North,0,0.0,0.0,1,0.00,,,0.00,WUHU216HW,2013-01-14 14:20:00,
2013-01-14 09:25:00,19.6,-28.2,29.76,North,0,0.0,0.0,1,0.00,,,0.00,WUHU216HW,2013-01-14 14:25:00,
2013-01-14 09:31:00,20.2,-27.7,29.76,North,0,0.0,0.0,1,0.00,,,0.00,WUHU216HW,2013-01-14 14:31:00,
2013-01-14 09:36:00,21.2,-27.0,29.76,North,0,0.0,0.0,1,0.00,,,0.00,WUHU216HW,2013-01-14 14:36:00,
2013-01-14 09:41:00,20.7,-27.3,29.76,North,0,0.0,0.0,1,0.00,,,0.00,WUHU216HW,2013-01-14 14:41:00,
2013-01-14 09:46:00,20.3,-27.6,29.75,North,0,0.0,0.0,1,0.00,,,0.00,WUHU216HW,2013-01-14 14:46:00,
2013-01-14 09:51:00,20.5,-27.5,29.75,North,0,0.0,0.0,1,0.00,,,0.00,WUHU216HW,2013-01-14 14:51:00,
2013-01-14 09:56:00,20.3,-27.6,29.75,North,0,0.0,0.0,1,0.00,,,0.00,WUHU216HW,2013-01-14 14:56:00,
2013-01-14 10:01:00,20.7,-27.3,29.75,North,0,0.0,0.0,1,0.00,,,0.00,WUHU216HW,2013-01-14 15:01:00,
2013-01-14 10:06:00,22.0,-26.5,29.76,North,0,0.0,0.0,1,0.00,,,0.00,WUHU216HW,2013-01-14 15:06:00,
2013-01-14 10:11:00,21.6,-26.7,29.76,North,0,0.0,0.0,1,0.00,,,0.00,WUHU216HW,2013-01-14 15:11:00,
2013-01-14 10:16:00,21.2,-27.0,29.75,North,0,0.0,0.0,1,0.00,,,0.00,WUHU216HW,2013-01-14 15:16:00,
2013-01-14 10:21:00,20.5,-27.5,29.75,North,0,0.0,0.0,1,0.00,,,0.00,WUHU216HW,2013-01-14 15:21:00,
2013-01-14 10:26:00,21.6,-26.7,29.74,North,0,0.0,0.0,1,0.00,,,0.00,WUHU216HW,2013-01-14 15:26:00,
2013-01-14 10:31:00,22.0,-26.5,29.74,North,0,0.0,0.0,1,0.00,,,0.00,WUHU216HW,2013-01-14 15:31:00,
2013-01-14 10:37:00,22.0,-26.5,29.73,North,0,0.0,0.0,1,0.00,,,0.00,WUHU216HW,2013-01-14 15:37:00,
2013-01-14 10:42:00,22.3,-26.1,29.73,North,0,0.0,0.0,1,0.00,,,0.00,WUHU216HW,2013-01-14 15:42:00,
2013-01-14 10:47:00,22.7,-25.8,29.73,North,0,0.0,0.0,1,0.00,,,0.00,WUHU216HW,2013-01-14 15:47:00,
2013-01-14 10:52:00,24.3,-24.6,29.73,North,0,0.0,0.0,1,0.00,,,0.00,WUHU216HW,2013-01-14 15:52:00,
2013-01-14 10:57:00,25.2,-17.1,29.73,North,0,0.0,0.0,15,0.00,,,0.00,WUHU216HW,2013-01-14 15:57:00,
2013-01-14 11:02:00,23.2,-25.4,29.74,North,0,0.0,0.0,5,0.00,,,0.00,WUHU216HW,2013-01-14 16:02:00,
2013-01-14 11:07:00,23.0,-25.6,29.74,North,0,0.0,0.0,1,0.00,,,0.00,WUHU216HW,2013-01-14 16:07:00,
2013-01-14 11:12:00,23.9,-24.8,29.74,North,0,0.0,0.0,1,0.00,,,0.00,WUHU216HW,2013-01-14 16:12:00,
2013-01-14 11:17:00,23.8,-25.0,29.74,North,0,0.0,0.0,4,0.00,,,0.00,WUHU216HW,2013-01-14 16:17:00,
2013-01-14 11:22:00,23.4,-25.3,29.75,North,0,0.0,0.0,1,0.00,,,0.00,WUHU216HW,2013-01-14 16:22:00,
2013-01-14 11:27:00,22.7,-25.8,29.73,North,0,0.0,0.0,1,0.00,,,0.00,WUHU216HW,2013-01-14 16:27:00,
2013-01-14 11:32:00,22.7,-25.8,29.73,North,0,0.0,0.0,1,0.00,,,0.00,WUHU216HW,2013-01-14 16:32:00,
2013-01-14 11:37:00,23.4,-25.3,29.72,North,0,0.0,0.0,1,0.00,,,0.00,WUHU216HW,2013-01-14 16:37:00,
2013-01-14 11:42:00,24.1,-24.6,29.73,North,0,0.0,0.0,3,0.00,,,0.00,WUHU216HW,2013-01-14 16:42:00,
2013-01-14 11:47:00,24.1,-24.6,29.74,North,0,0.0,0.0,1,0.00,,,0.00,WUHU216HW,2013-01-14 16:47:00,
2013-01-14 11:52:00,24.7,-24.3,29.75,North,0,0.0,0.0,1,0.00,,,0.00,WUHU216HW,2013-01-14 16:52:00,
2013-01-14 11:57:00,25.2,-23.8,29.75,North,0,0.0,0.0,1,0.00,,,0.00,WUHU216HW,2013-01-14 16:57:00,
2013-01-14 12:03:00,24.8,-24.1,29.73,North,0,0.0,0.0,10,0.00,,,0.00,WUHU216HW,2013-01-14 17:03:00,
2013-01-14 12:08:00,24.1,-24.6,29.73,North,0,0.0,0.0,2,0.00,,,0.00,WUHU216HW,2013-01-14 17:08:00,
2013-01-14 12:13:00,24.8,-24.1,29.75,North,0,0.0,0.0,1,0.00,,,0.00,WUHU216HW,2013-01-14 17:13:00,
2013-01-14 12:18:00,26.5,-22.9,29.76,North,0,0.0,0.0,9,0.00,,,0.00,WUHU216HW,2013-01-14 17:18:00,
2013-01-14 12:23:00,25.4,-23.7,29.76,North,0,0.0,0.0,5,0.00,,,0.00,WUHU216HW,2013-01-14 17:23:00,
2013-01-14 12:28:00,25.9,-23.2,29.75,North,0,0.0,0.0,9,0.00,,,0.00,WUHU216HW,2013-01-14 17:28:00,
2013-01-14 12:33:00,25.9,-23.2,29.75,North,0,0.0,0.0,1,0.00,,,0.00,WUHU216HW,2013-01-14 17:33:00,
2013-01-14 12:38:00,25.4,-14.2,29.73,North,0,0.0,0.0,17,0.00,,,0.00,WUHU216HW,2013-01-14 17:38:00,
2013-01-14 12:43:00,25.2,-23.8,29.73,North,0,0.0,0.0,1,0.00,,,0.00,WUHU216HW,2013-01-14 17:43:00,
2013-01-14 12:48:00,26.1,-23.1,29.73,North,0,0.0,0.0,1,0.00,,,0.00,WUHU216HW,2013-01-14 17:48:00,
2013-01-14 12:53:00,25.6,-23.6,29.74,North,0,0.0,0.0,1,0.00,,,0.00,WUHU216HW,2013-01-14 17:53:00,
2013-01-14 12:58:00,25.6,-23.6,29.75,North,0,0.0,0.0,5,0.00,,,0.00,WUHU216HW,2013-01-14 17:58:00,
2013-01-14 13:03:00,24.8,-24.1,29.75,North,0,0.0,0.0,2,0.00,,,0.00,WUHU216HW,2013-01-14 18:03:00,
2013-01-14 13:08:00,25.0,-23.9,29.75,North,0,0.0,0.0,2,0.00,,,0.00,WUHU216HW,2013-01-14 18:08:00,
2013-01-14 13:13:00,25.2,-23.8,29.75,North,0,0.0,0.0,1,0.00,,,0.00,WUHU216HW,2013-01-14 18:13:00,
2013-01-14 13:19:00,25.0,-23.9,29.74,North,0,0.0,0.0,9,0.00,,,0.00,WUHU216HW,2013-01-14 18:19:00,
2013-01-14 13:24:00,25.7,-23.4,29.73,North,0,0.0,0.0,1,0.00,,,0.00,WUHU216HW,2013-01-14 18:24:00,
2013-01-14 13:29:00,25.9,-23.2,29.73,North,0,0.0,0.0,6,0.00,,,0.00,WUHU216HW,2013-01-14 18:29:00,
2013-01-14 13:34:00,25.7,-23.4,29.74,North,0,0.0,0.0,10,0.00,,,0.00,WUHU216HW,2013-01-14 18:34:00,
2013-01-14 13:39:00,25.6,-20.8,29.74,North,0,0.0,0.0,12,0.00,,,0.00,WUHU216HW,2013-01-14 18:39:00,
2013-01-14 13:44:00,25.6,-23.6,29.73,North,0,0.0,0.0,9,0.00,,,0.00,WUHU216HW,2013-01-14 18:44:00,
2013-01-14 13:49:00,26.3,-22.9,29.73,North,0,0.0,0.0,10,0.00,,,0.00,WUHU216HW,2013-01-14 18:49:00,
2013-01-14 13:54:00,25.7,-20.7,29.72,North,0,0.0,0.0,12,0.00,,,0.00,WUHU216HW,2013-01-14 18:54:00,
2013-01-14 13:59:00,25.6,-23.6,29.72,North,0,0.0,0.0,5,0.00,,,0.00,WUHU216HW,2013-01-14 18:59:00,
2013-01-14 14:05:00,25.7,-23.4,29.73,North,0,0.0,0.0,4,0.00,,,0.00,WUHU216HW,2013-01-14 19:05:00,
2013-01-14 14:10:00,25.6,-23.6,29.73,North,0,0.0,0.0,2,0.00,,,0.00,WUHU216HW,2013-01-14 19:10:00,
2013-01-14 14:15:00,25.0,-23.9,29.73,North,0,0.0,0.0,9,0.00,,,0.00,WUHU216HW,2013-01-14 19:15:00,
2013-01-14 14:20:00,24.8,-24.1,29.73,North,0,0.0,0.0,5,0.00,,,0.00,WUHU216HW,2013-01-14 19:20:00,
2013-01-14 14:25:00,24.7,-24.3,29.73,North,0,0.0,0.0,1,0.00,,,0.00,WUHU216HW,2013-01-14 19:25:00,
2013-01-14 14:30:00,24.5,-24.4,29.73,North,0,0.0,0.0,1,0.00,,,0.00,WUHU216HW,2013-01-14 19:30:00,
2013-01-14 14:35:00,24.7,-24.3,29.73,North,0,0.0,0.0,1,0.00,,,0.00,WUHU216HW,2013-01-14 19:35:00,
2013-01-14 14:40:00,24.8,-24.1,29.74,North,0,0.0,0.0,1,0.00,,,0.00,WUHU216HW,2013-01-14 19:40:00,
2013-01-14 14:45:00,24.8,-24.1,29.75,North,0,0.0,0.0,1,0.00,,,0.00,WUHU216HW,2013-01-14 19:45:00,
2013-01-14 14:50:00,24.7,-24.3,29.75,North,0,0.0,0.0,1,0.00,,,0.00,WUHU216HW,2013-01-14 19:50:00,
2013-01-14 14:55:00,24.8,-24.1,29.74,North,0,0.0,0.0,1,0.00,,,0.00,WUHU216HW,2013-01-14 19:55:00,
2013-01-14 15:00:00,24.8,-24.1,29.76,North,0,0.0,0.0,1,0.00,,,0.00,WUHU216HW,2013-01-14 20:00:00,
2013-01-14 15:05:00,25.0,-23.9,29.76,North,0,0.0,0.0,1,0.00,,,0.00,WUHU216HW,2013-01-14 20:05:00,
2013-01-14 15:11:00,25.2,-23.8,29.77,North,0,0.0,0.0,1,0.00,,,0.00,WUHU216HW,2013-01-14 20:11:00,
2013-01-14 15:16:00,25.2,-23.8,29.77,North,0,0.0,0.0,1,0.00,,,0.00,WUHU216HW,2013-01-14 20:16:00,
2013-01-14 15:21:00,24.8,-24.1,29.77,North,0,0.0,0.0,1,0.00,,,0.00,WUHU216HW,2013-01-14 20:21:00,
2013-01-14 15:26:00,24.7,-24.3,29.77,North,0,0.0,0.0,1,0.00,,,0.00,WUHU216HW,2013-01-14 20:26:00,
2013-01-14 15:31:00,24.7,-24.3,29.78,North,0,0.0,0.0,1,0.00,,,0.00,WUHU216HW,2013-01-14 20:31:00,
2013-01-14 15:36:00,24.7,-24.3,29.77,North,0,0.0,0.0,1,0.00,,,0.00,WUHU216HW,2013-01-14 20:36:00,
2013-01-14 15:41:00,24.5,-24.4,29.76,North,0,0.0,0.0,1,0.00,,,0.00,WUHU216HW,2013-01-14 20:41:00,
2013-01-14 15:46:00,24.3,-24.6,29.77,North,0,0.0,0.0,1,0.00,,,0.00,WUHU216HW,2013-01-14 20:46:00,
2013-01-14 15:51:00,24.1,-24.6,29.78,North,0,0.0,0.0,1,0.00,,,0.00,WUHU216HW,2013-01-14 20:51:00,
2013-01-14 15:56:00,24.3,-24.6,29.79,North,0,0.0,0.0,1,0.00,,,0.00,WUHU216HW,2013-01-14 20:56:00,
2013-01-14 16:01:00,24.3,-24.6,29.79,North,0,0.0,0.0,1,0.00,,,0.00,WUHU216HW,2013-01-14 21:01:00,
2013-01-14 16:06:00,24.5,-24.4,29.79,North,0,0.0,0.0,1,0.00,,,0.00,WUHU216HW,2013-01-14 21:06:00,
2013-01-14 16:12:00,24.7,-24.3,29.78,North,0,0.0,0.0,1,0.00,,,0.00,WUHU216HW,2013-01-14 21:12:00,
2013-01-14 16:17:00,24.5,-24.4,29.77,North,0,0.0,0.0,1,0.00,,,0.00,WUHU216HW,2013-01-14 21:17:00,
2013-01-14 16:22:00,24.5,-24.4,29.77,North,0,0.0,0.0,1,0.00,,,0.00,WUHU216HW,2013-01-14 21:22:00,
2013-01-14 16:27:00,24.3,-24.6,29.77,North,0,0.0,0.0,1,0.00,,,0.00,WUHU216HW,2013-01-14 21:27:00,
2013-01-14 16:32:00,24.3,-24.6,29.78,North,0,0.0,0.0,1,0.00,,,0.00,WUHU216HW,2013-01-14 21:32:00,
2013-01-14 16:37:00,24.3,-24.6,29.78,North,0,0.0,0.0,1,0.00,,,0.00,WUHU216HW,2013-01-14 21:37:00,
2013-01-14 16:42:00,24.5,-24.4,29.78,North,0,0.0,0.0,1,0.00,,,0.00,WUHU216HW,2013-01-14 21:42:00,
2013-01-14 16:47:00,24.1,-24.6,29.78,North,0,0.0,0.0,1,0.00,,,0.00,WUHU216HW,2013-01-14 21:47:00,
2013-01-14 16:52:00,24.1,-24.6,29.76,North,0,0.0,0.0,1,0.00,,,0.00,WUHU216HW,2013-01-14 21:52:00,
2013-01-14 16:58:00,24.1,-24.6,29.76,North,0,0.0,0.0,1,0.00,,,0.00,WUHU216HW,2013-01-14 21:58:00,
2013-01-14 17:03:00,24.1,-24.6,29.76,North,0,0.0,0.0,1,0.00,,,0.00,WUHU216HW,2013-01-14 22:03:00,
2013-01-14 17:08:00,24.1,-24.6,29.77,North,0,0.0,0.0,1,0.00,,,0.00,WUHU216HW,2013-01-14 22:08:00,
2013-01-14 17:13:00,23.9,-24.8,29.76,North,0,0.0,0.0,1,0.00,,,0.00,WUHU216HW,2013-01-14 22:13:00,
2013-01-14 17:18:00,24.1,-24.6,29.76,North,0,0.0,0.0,1,0.00,,,0.00,WUHU216HW,2013-01-14 22:18:00,
2013-01-14 17:23:00,24.1,-24.6,29.75,North,0,0.0,0.0,1,0.00,,,0.00,WUHU216HW,2013-01-14 22:23:00,
2013-01-14 17:28:00,24.1,-24.6,29.75,North,0,0.0,0.0,1,0.00,,,0.00,WUHU216HW,2013-01-14 22:28:00,
2013-01-14 17:33:00,24.1,-24.6,29.76,North,0,0.0,0.0,1,0.00,,,0.00,WUHU216HW,2013-01-14 22:33:00,
2013-01-14 17:38:00,23.9,-24.8,29.76,North,0,0.0,0.0,1,0.00,,,0.00,WUHU216HW,2013-01-14 22:38:00,
2013-01-14 17:44:00,23.9,-24.8,29.76,North,0,0.0,0.0,1,0.00,,,0.00,WUHU216HW,2013-01-14 22:44:00,
2013-01-14 17:49:00,23.9,-24.8,29.76,North,0,0.0,0.0,1,0.00,,,0.00,WUHU216HW,2013-01-14 22:49:00,
2013-01-14 17:54:00,23.9,-24.8,29.76,North,0,0.0,0.0,1,0.00,,,0.00,WUHU216HW,2013-01-14 22:54:00,
2013-01-14 17:59:00,23.8,-25.0,29.76,North,0,0.0,0.0,1,0.00,,,0.00,WUHU216HW,2013-01-14 22:59:00,
2013-01-14 18:04:00,23.8,-25.0,29.76,North,0,0.0,0.0,1,0.00,,,0.00,WUHU216HW,2013-01-14 23:04:00,
2013-01-14 18:09:00,23.6,-25.1,29.77,North,0,0.0,0.0,1,0.00,,,0.00,WUHU216HW,2013-01-14 23:09:00,
2013-01-14 18:14:00,23.6,-25.1,29.76,North,0,0.0,0.0,1,0.00,,,0.00,WUHU216HW,2013-01-14 23:14:00,
2013-01-14 18:20:00,23.4,-25.3,29.76,North,0,0.0,0.0,1,0.00,,,0.00,WUHU216HW,2013-01-14 23:20:00,
2013-01-14 18:25:00,23.6,-25.1,29.76,North,0,0.0,0.0,1,0.00,,,0.00,WUHU216HW,2013-01-14 23:25:00,
2013-01-14 18:30:00,23.6,-25.1,29.75,North,0,0.0,0.0,1,0.00,,,0.00,WUHU216HW,2013-01-14 23:30:00,
2013-01-14 18:35:00,23.6,-25.1,29.75,North,0,0.0,0.0,1,0.00,,,0.00,WUHU216HW,2013-01-14 23:35:00,
2013-01-14 18:40:00,23.8,-25.0,29.74,North,0,0.0,0.0,1,0.00,,,0.00,WUHU216HW,2013-01-14 23:40:00,
2013-01-14 18:45:00,23.6,-25.1,29.74,North,0,0.0,0.0,1,0.00,,,0.00,WUHU216HW,2013-01-14 23:45:00,
2013-01-14 18:50:00,23.6,-25.1,29.73,North,0,0.0,0.0,1,0.00,,,0.00,WUHU216HW,2013-01-14 23:50:00,
2013-01-14 18:55:00,23.6,-25.1,29.73,North,0,0.0,0.0,1,0.00,,,0.00,WUHU216HW,2013-01-14 23:55:00,
2013-01-14 19:00:00,23.6,-25.1,29.73,North,0,0.0,0.0,1,0.00,,,0.00,WUHU216HW,2013-01-15 00:00:00,
2013-01-14 19:05:00,23.6,-25.1,29.73,North,0,0.0,0.0,1,0.00,,,0.00,WUHU216HW,2013-01-15 00:05:00,
2013-01-14 19:11:00,23.6,-25.1,29.73,North,0,0.0,0.0,1,0.00,,,0.00,WUHU216HW,2013-01-15 00:11:00,
2013-01-14 19:16:00,23.6,-25.1,29.73,North,0,0.0,0.0,1,0.00,,,0.00,WUHU216HW,2013-01-15 00:16:00,
2013-01-14 19:21:00,23.4,-25.3,29.73,North,0,0.0,0.0,1,0.00,,,0.00,WUHU216HW,2013-01-15 00:21:00,
2013-01-14 19:26:00,23.6,-25.1,29.73,North,0,0.0,0.0,1,0.00,,,0.00,WUHU216HW,2013-01-15 00:26:00,
2013-01-14 19:31:00,23.6,-25.1,29.73,North,0,0.0,0.0,1,0.00,,,0.00,WUHU216HW,2013-01-15 00:31:00,
2013-01-14 19:36:00,23.4,-25.3,29.73,North,0,0.0,0.0,1,0.00,,,0.00,WUHU216HW,2013-01-15 00:36:00,
2013-01-14 19:41:00,23.4,-25.3,29.73,North,0,0.0,0.0,1,0.00,,,0.00,WUHU216HW,2013-01-15 00:41:00,
2013-01-14 19:46:00,23.4,-25.3,29.74,North,0,0.0,0.0,1,0.00,,,0.00,WUHU216HW,2013-01-15 00:46:00,
2013-01-14 19:51:00,23.6,-25.1,29.74,North,0,0.0,0.0,1,0.00,,,0.00,WUHU216HW,2013-01-15 00:51:00,
2013-01-14 19:56:00,23.4,-25.3,29.74,North,0,0.0,0.0,1,0.00,,,0.00,WUHU216HW,2013-01-15 00:56:00,
2013-01-14 20:01:00,23.4,-25.3,29.74,North,0,0.0,0.0,1,0.00,,,0.00,WUHU216HW,2013-01-15 01:01:00,
2013-01-14 20:06:00,23.4,-25.3,29.75,North,0,0.0,0.0,1,0.00,,,0.00,WUHU216HW,2013-01-15 01:06:00,
2013-01-14 20:12:00,23.4,-25.3,29.74,North,0,0.0,0.0,1,0.00,,,0.00,WUHU216HW,2013-01-15 01:12:00,
2013-01-14 20:17:00,23.4,-25.3,29.75,North,0,0.0,0.0,1,0.00,,,0.00,WUHU216HW,2013-01-15 01:17:00,
2013-01-14 20:22:00,23.4,-25.3,29.74,North,0,0.0,0.0,1,0.00,,,0.00,WUHU216HW,2013-01-15 01:22:00,
2013-01-14 20:27:00,23.4,-25.3,29.74,North,0,0.0,0.0,1,0.00,,,0.00,WUHU216HW,2013-01-15 01:27:00,
2013-01-14 20:32:00,23.4,-25.3,29.74,North,0,0.0,0.0,1,0.00,,,0.00,WUHU216HW,2013-01-15 01:32:00,
2013-01-14 20:37:00,23.4,-25.3,29.73,North,0,0.0,0.0,1,0.00,,,0.00,WUHU216HW,2013-01-15 01:37:00,
2013-01-14 20:42:00,23.4,-25.3,29.73,North,0,0.0,0.0,1,0.00,,,0.00,WUHU216HW,2013-01-15 01:42:00,
2013-01-14 20:47:00,23.4,-25.3,29.73,North,0,0.0,0.0,1,0.00,,,0.00,WUHU216HW,2013-01-15 01:47:00,
2013-01-14 20:52:00,23.4,-25.3,29.73,North,0,0.0,0.0,1,0.00,,,0.00,WUHU216HW,2013-01-15 01:52:00,
2013-01-14 20:57:00,23.4,-25.3,29.73,North,0,0.0,0.0,1,0.00,,,0.00,WUHU216HW,2013-01-15 01:57:00,
2013-01-14 21:02:00,23.4,-25.3,29.73,North,0,0.0,0.0,1,0.00,,,0.00,WUHU216HW,2013-01-15 02:02:00,
2013-01-14 21:07:00,23.4,-25.3,29.73,North,0,0.0,0.0,1,0.00,,,0.00,WUHU216HW,2013-01-15 02:07:00,
2013-01-14 21:13:00,23.4,-25.3,29.72,North,0,0.0,0.0,1,0.00,,,0.00,WUHU216HW,2013-01-15 02:13:00,
2013-01-14 21:18:00,23.4,-25.3,29.72,North,0,0.0,0.0,1,0.00,,,0.00,WUHU216HW,2013-01-15 02:18:00,
2013-01-14 21:23:00,23.2,-25.4,29.72,North,0,0.0,0.0,1,0.00,,,0.00,WUHU216HW,2013-01-15 02:23:00,
2013-01-14 21:28:00,23.0,-25.6,29.72,North,0,0.0,0.0,1,0.00,,,0.00,WUHU216HW,2013-01-15 02:28:00,
2013-01-14 21:33:00,23.0,-25.6,29.73,North,0,0.0,0.0,1,0.00,,,0.00,WUHU216HW,2013-01-15 02:33:00,
2013-01-14 21:38:00,23.0,-25.6,29.72,North,0,0.0,0.0,1,0.00,,,0.00,WUHU216HW,2013-01-15 02:38:00,
2013-01-14 21:43:00,23.0,-25.6,29.72,North,0,0.0,0.0,1,0.00,,,0.00,WUHU216HW,2013-01-15 02:43:00,
2013-01-14 21:49:00,23.0,-25.6,29.72,North,0,0.0,0.0,1,0.00,,,0.00,WUHU216HW,2013-01-15 02:49:00,
2013-01-14 21:54:00,22.9,-25.7,29.73,North,0,0.0,0.0,1,0.00,,,0.00,WUHU216HW,2013-01-15 02:54:00,
2013-01-14 21:59:00,22.7,-25.8,29.72,North,0,0.0,0.0,1,0.00,,,0.00,WUHU216HW,2013-01-15 02:59:00,
2013-01-14 22:04:00,22.9,-25.7,29.72,North,0,0.0,0.0,1,0.00,,,0.00,WUHU216HW,2013-01-15 03:04:00,
2013-01-14 22:09:00,22.9,-25.7,29.72,North,0,0.0,0.0,1,0.00,,,0.00,WUHU216HW,2013-01-15 03:09:00,
2013-01-14 22:14:00,22.9,-25.7,29.72,North,0,0.0,0.0,1,0.00,,,0.00,WUHU216HW,2013-01-15 03:14:00,
2013-01-14 22:19:00,22.9,-25.7,29.72,North,0,0.0,0.0,1,0.00,,,0.00,WUHU216HW,2013-01-15 03:19:00,
2013-01-14 22:24:00,22.9,-25.7,29.72,North,0,0.0,0.0,1,0.00,,,0.00,WUHU216HW,2013-01-15 03:24:00,
2013-01-14 22:29:00,22.9,-25.7,29.72,North,0,0.0,0.0,1,0.00,,,0.00,WUHU216HW,2013-01-15 03:29:00,
2013-01-14 22:34:00,22.9,-25.7,29.71,North,0,0.0,0.0,1,0.00,,,0.00,WUHU216HW,2013-01-15 03:34:00,
2013-01-14 22:39:00,22.9,-25.7,29.72,North,0,0.0,0.0,1,0.00,,,0.00,WUHU216HW,2013-01-15 03:39:00,
2013-01-14 22:44:00,22.7,-25.8,29.72,North,0,0.0,0.0,1,0.00,,,0.00,WUHU216HW,2013-01-15 03:44:00,
2013-01-14 22:49:00,22.9,-25.7,29.71,North,0,0.0,0.0,1,0.00,,,0.00,WUHU216HW,2013-01-15 03:49:00,
2013-01-14 22:55:00,22.9,-25.7,29.72,North,0,0.0,0.0,1,0.00,,,0.00,WUHU216HW,2013-01-15 03:55:00,
2013-01-14 23:00:00,22.7,-25.8,29.72,North,0,0.0,0.0,1,0.00,,,0.00,WUHU216HW,2013-01-15 04:00:00,
2013-01-14 23:05:00,22.7,-25.8,29.72,North,0,0.0,0.0,1,0.00,,,0.00,WUHU216HW,2013-01-15 04:05:00,
2013-01-14 23:10:00,22.7,-25.8,29.72,North,0,0.0,0.0,1,0.00,,,0.00,WUHU216HW,2013-01-15 04:10:00,
2013-01-14 23:15:00,22.5,-26.0,29.72,North,0,0.0,0.0,1,0.00,,,0.00,WUHU216HW,2013-01-15 04:15:00,
2013-01-14 23:20:00,22.5,-26.0,29.72,North,0,0.0,0.0,1,0.00,,,0.00,WUHU216HW,2013-01-15 04:20:00,
2013-01-14 23:25:00,22.7,-25.8,29.72,North,0,0.0,0.0,1,0.00,,,0.00,WUHU216HW,2013-01-15 04:25:00,
2013-01-14 23:30:00,22.7,-25.8,29.72,North,0,0.0,0.0,1,0.00,,,0.00,WUHU216HW,2013-01-15 04:30:00,
2013-01-14 23:35:00,22.7,-25.8,29.72,North,0,0.0,0.0,1,0.00,,,0.00,WUHU216HW,2013-01-15 04:35:00,
2013-01-14 23:40:00,22.7,-25.8,29.72,North,0,0.0,0.0,1,0.00,,,0.00,WUHU216HW,2013-01-15 04:40:00,
2013-01-14 23:45:00,22.7,-25.8,29.73,North,0,0.0,0.0,1,0.00,,,0.00,WUHU216HW,2013-01-15 04:45:00,
2013-01-14 23:50:00,22.7,-25.8,29.72,North,0,0.0,0.0,1,0.00,,,0.00,WUHU216HW,2013-01-15 04:50:00,
2013-01-14 23:56:00,22.9,-25.7,29.73,North,0,0.0,0.0,1,0.00,,,0.00,WUHU216HW,2013-01-15 04:56:00,